Time;durP1;ratioP1;P1;durP2;ratioP2;P2;SDS_P1;SDS_P2;PMS_P1;PMS_P2;Temp;Humidity;BMP_temperature;BMP_pressure;BME280_temperature;BME280_humidity;BME280_pressure;Samples;Min_cycle;Max_cycle;Signal;HPM_P1;HPM_P2
2022/07/14 00:01:23;;;;;;;13.23;3.22;;;18.10;99.90;;;;;;5046553;28;20044;-63
2022/07/14 00:03:49;;;;;;;13.85;3.90;;;18.00;99.90;;;;;;5049916;28;20032;-62
2022/07/14 00:06:15;;;;;;;12.40;3.47;;;17.90;99.90;;;;;;5055660;28;20055;-62
2022/07/14 00:08:43;;;;;;;14.02;3.20;;;18.00;99.90;;;;;;5044091;28;20080;-63
2022/07/14 00:11:10;;;;;;;10.00;3.55;;;18.10;99.90;;;;;;5049644;28;21219;-62
2022/07/14 00:13:36;;;;;;;11.77;3.38;;;18.00;99.90;;;;;;5040587;28;20013;-62
2022/07/14 00:16:02;;;;;;;12.40;3.25;;;18.10;99.90;;;;;;5049766;28;20032;-63
2022/07/14 00:18:27;;;;;;;11.05;3.35;;;18.30;99.90;;;;;;5046812;28;20042;-63
2022/07/14 00:20:53;;;;;;;12.02;3.50;;;18.10;99.90;;;;;;5052232;28;20400;-62
2022/07/14 00:23:21;;;;;;;18.27;3.50;;;17.90;99.90;;;;;;5047790;28;20048;-62
2022/07/14 00:25:47;;;;;;;13.90;3.30;;;17.80;99.90;;;;;;5056178;28;20338;-62
2022/07/14 00:28:12;;;;;;;12.52;3.45;;;17.90;99.90;;;;;;5044037;28;20174;-62
2022/07/14 00:30:38;;;;;;;9.32;2.78;;;17.70;99.90;;;;;;5057037;28;20029;-62
2022/07/14 00:33:03;;;;;;;15.13;3.22;;;18.00;99.90;;;;;;5053286;28;20475;-62
2022/07/14 00:35:29;;;;;;;12.60;3.00;;;17.90;99.90;;;;;;5049496;28;20060;-62
2022/07/14 00:37:54;;;;;;;14.57;3.50;;;17.90;99.90;;;;;;5053299;28;20511;-62
2022/07/14 00:40:20;;;;;;;15.73;4.00;;;18.00;99.90;;;;;;5057917;28;20031;-62
2022/07/14 00:42:48;;;;;;;12.50;3.35;;;17.70;99.90;;;;;;5047521;28;20037;-62
2022/07/14 00:45:17;;;;;;;15.00;3.75;;;17.60;99.90;;;;;;5060367;28;20016;-62
2022/07/14 00:47:44;;;;;;;14.80;3.65;;;17.60;99.90;;;;;;5057368;28;20032;-62
2022/07/14 00:50:12;;;;;;;17.20;3.80;;;17.60;99.90;;;;;;5054949;28;20032;-63
2022/07/14 00:52:39;;;;;;;15.32;3.47;;;17.90;99.90;;;;;;5052087;28;20036;-63
2022/07/14 00:55:05;;;;;;;11.23;3.30;;;17.80;99.90;;;;;;5054592;28;20020;-62
2022/07/14 00:57:30;;;;;;;12.93;3.67;;;18.00;99.90;;;;;;5047874;28;20025;-62
2022/07/14 00:59:56;;;;;;;13.80;3.50;;;18.10;99.90;;;;;;5041124;28;20645;-62
2022/07/14 01:02:22;;;;;;;11.63;3.30;;;17.90;99.90;;;;;;5057057;28;20743;-62
2022/07/14 01:04:49;;;;;;;14.95;3.65;;;17.90;99.90;;;;;;5048325;28;20028;-62
2022/07/14 01:07:16;;;;;;;13.70;3.58;;;17.90;99.90;;;;;;5055620;28;20494;-63
2022/07/14 01:09:43;;;;;;;13.05;3.58;;;18.00;99.90;;;;;;5050496;28;20443;-62
2022/07/14 01:12:09;;;;;;;11.07;3.85;;;17.60;99.90;;;;;;5059113;28;20563;-62
2022/07/14 01:14:36;;;;;;;15.52;3.67;;;17.70;99.90;;;;;;5060238;28;20033;-63
2022/07/14 01:17:02;;;;;;;16.85;3.72;;;17.30;99.90;;;;;;5042322;28;20037;-62
2022/07/14 01:19:28;;;;;;;14.20;3.83;;;17.20;99.90;;;;;;5049565;28;20044;-62
2022/07/14 01:21:55;;;;;;;17.60;3.78;;;17.40;99.90;;;;;;5048933;28;20040;-63
2022/07/14 01:24:22;;;;;;;14.48;3.65;;;17.70;99.90;;;;;;5054035;28;20115;-63
2022/07/14 01:26:47;;;;;;;14.85;3.38;;;17.80;99.90;;;;;;5055748;28;20043;-62
2022/07/14 01:29:13;;;;;;;13.65;3.60;;;17.70;99.90;;;;;;5054676;28;20028;-62
2022/07/14 01:31:39;;;;;;;16.65;4.20;;;17.60;99.90;;;;;;5048226;28;20028;-62
2022/07/14 01:34:05;;;;;;;12.85;3.40;;;17.80;99.90;;;;;;5051634;28;20150;-62
2022/07/14 01:36:30;;;;;;;13.50;3.53;;;17.60;99.90;;;;;;5046876;28;20362;-62
2022/07/14 01:38:57;;;;;;;15.32;3.70;;;17.20;99.90;;;;;;5048245;28;20032;-62
2022/07/14 01:41:23;;;;;;;11.75;3.38;;;17.00;99.90;;;;;;5052890;28;20284;-62
2022/07/14 01:43:49;;;;;;;19.70;3.83;;;16.90;99.90;;;;;;5055333;28;20039;-63
2022/07/14 01:46:14;;;;;;;15.48;3.42;;;16.90;99.90;;;;;;5047731;28;20636;-62
2022/07/14 01:48:41;;;;;;;12.10;3.50;;;17.00;99.90;;;;;;5044896;28;20033;-62
2022/07/14 01:51:06;;;;;;;13.55;3.38;;;17.20;99.90;;;;;;5048194;28;20013;-63
2022/07/14 01:53:32;;;;;;;14.45;3.40;;;17.30;99.90;;;;;;5053576;28;20236;-62
2022/07/14 01:55:58;;;;;;;15.50;3.80;;;17.00;99.90;;;;;;5049740;28;20033;-62
2022/07/14 01:58:24;;;;;;;13.43;3.60;;;17.00;99.90;;;;;;5045315;28;20032;-62
2022/07/14 02:01:50;;;;;;;12.55;3.67;;;17.40;99.90;;;;;;5044381;28;20025;-63
2022/07/14 02:03:45;;;;;;;11.10;3.72;;;17.60;99.90;;;;;;5039684;28;20083;-62
2022/07/14 02:06:11;;;;;;;15.65;3.92;;;17.10;99.90;;;;;;5047134;28;20221;-62
2022/07/14 02:08:37;;;;;;;11.02;3.38;;;17.20;99.90;;;;;;5049460;28;20071;-62
2022/07/14 02:13:47;;;;;;;17.38;4.03;;;17.30;99.90;;;;;;5046646;28;20040;-62
2022/07/14 02:16:12;;;;;;;15.32;3.72;;;17.40;99.90;;;;;;5035349;28;20028;-62
2022/07/14 02:18:38;;;;;;;16.02;3.90;;;17.00;99.90;;;;;;5044489;28;20040;-62
2022/07/14 02:21:04;;;;;;;14.77;3.85;;;17.00;99.90;;;;;;5045853;28;20028;-62
2022/07/14 02:23:29;;;;;;;15.50;3.78;;;16.80;99.90;;;;;;5055818;28;20025;-62
2022/07/14 02:25:55;;;;;;;12.00;3.80;;;16.90;99.90;;;;;;5054317;28;20382;-62
2022/07/14 02:28:20;;;;;;;15.07;3.50;;;17.00;99.90;;;;;;5052305;28;20411;-62
2022/07/14 02:30:46;;;;;;;15.93;4.00;;;17.00;99.90;;;;;;5057108;28;20685;-62
2022/07/14 02:33:12;;;;;;;16.15;4.00;;;16.90;99.90;;;;;;5051300;28;20032;-63
2022/07/14 02:35:38;;;;;;;13.95;4.10;;;16.80;99.90;;;;;;5057061;28;20033;-62
2022/07/14 02:38:03;;;;;;;14.27;4.10;;;16.70;99.90;;;;;;5051988;28;20028;-62
2022/07/14 02:40:29;;;;;;;15.52;4.13;;;16.70;99.90;;;;;;5049520;28;20042;-62
2022/07/14 02:42:54;;;;;;;20.52;4.22;;;16.80;99.90;;;;;;5056496;28;20486;-62
2022/07/14 02:45:20;;;;;;;14.98;4.00;;;16.80;99.90;;;;;;5049330;28;20033;-62
2022/07/14 02:47:46;;;;;;;21.02;3.92;;;16.70;99.90;;;;;;5055483;28;20028;-62
2022/07/14 02:50:11;;;;;;;14.13;4.13;;;16.60;99.90;;;;;;5045314;28;20621;-62
2022/07/14 02:52:38;;;;;;;19.73;4.85;;;16.60;99.90;;;;;;5054342;28;20035;-62
2022/07/14 02:55:04;;;;;;;21.30;4.80;;;16.50;99.90;;;;;;5049179;28;20468;-62
2022/07/14 02:57:29;;;;;;;14.80;3.72;;;16.40;99.90;;;;;;5045281;28;20043;-62
2022/07/14 02:59:55;;;;;;;20.48;4.20;;;16.40;99.90;;;;;;5044532;28;20408;-62
2022/07/14 03:02:21;;;;;;;20.30;4.32;;;16.70;99.90;;;;;;5048055;28;20043;-62
2022/07/14 03:04:46;;;;;;;17.35;4.30;;;16.80;99.90;;;;;;5049039;28;20032;-62
2022/07/14 03:07:12;;;;;;;16.30;4.00;;;16.80;99.90;;;;;;5050835;28;20514;-62
2022/07/14 03:09:38;;;;;;;13.75;4.05;;;16.70;99.90;;;;;;5041636;28;20029;-62
2022/07/14 03:12:04;;;;;;;14.45;3.85;;;16.60;99.90;;;;;;5050971;28;20024;-62
2022/07/14 03:14:29;;;;;;;15.63;4.10;;;16.80;99.90;;;;;;5042100;28;20062;-62
2022/07/14 03:16:55;;;;;;;15.82;4.60;;;16.70;99.90;;;;;;5049442;28;20087;-62
2022/07/14 03:19:20;;;;;;;15.85;4.57;;;16.60;99.90;;;;;;5044164;28;20039;-62
2022/07/14 03:21:46;;;;;;;14.40;4.18;;;16.40;99.90;;;;;;5050455;28;20024;-62
2022/07/14 03:24:12;;;;;;;13.65;4.05;;;16.40;99.90;;;;;;5054735;28;20024;-62
2022/07/14 03:26:38;;;;;;;18.05;4.80;;;16.60;99.90;;;;;;5050508;28;20036;-62
2022/07/14 03:29:05;;;;;;;17.50;4.75;;;16.90;99.90;;;;;;5044781;28;20020;-62
2022/07/14 03:31:31;;;;;;;19.27;4.60;;;16.80;99.90;;;;;;5054508;28;20032;-62
2022/07/14 03:33:56;;;;;;;25.35;5.10;;;16.50;99.90;;;;;;5052955;28;20028;-62
2022/07/14 03:36:22;;;;;;;14.07;4.78;;;16.70;99.90;;;;;;5055656;28;20597;-62
2022/07/14 03:38:48;;;;;;;18.65;4.50;;;16.80;99.90;;;;;;5049918;28;20628;-62
2022/07/14 03:41:14;;;;;;;16.60;4.40;;;16.60;99.90;;;;;;5049348;28;20028;-62
2022/07/14 03:43:40;;;;;;;19.23;5.00;;;16.70;99.90;;;;;;5046543;28;20025;-62
2022/07/14 03:46:06;;;;;;;20.20;4.80;;;16.70;99.90;;;;;;5047739;28;20056;-62
2022/07/14 03:48:33;;;;;;;18.90;4.68;;;16.60;99.90;;;;;;5043937;28;20035;-62
2022/07/14 03:50:59;;;;;;;18.52;4.70;;;16.60;99.90;;;;;;5058669;28;20099;-62
2022/07/14 03:53:24;;;;;;;18.58;4.13;;;16.70;99.90;;;;;;5041168;28;20022;-62
2022/07/14 03:55:50;;;;;;;20.60;5.18;;;16.80;99.90;;;;;;5048438;28;20051;-62
2022/07/14 03:58:16;;;;;;;20.95;4.95;;;16.70;99.90;;;;;;5041107;28;20032;-62
2022/07/14 04:00:41;;;;;;;15.90;4.90;;;16.80;99.90;;;;;;5047031;28;20127;-62
2022/07/14 04:03:07;;;;;;;17.42;4.45;;;16.70;99.90;;;;;;5041920;28;20025;-62
2022/07/14 04:05:32;;;;;;;15.65;4.40;;;16.60;99.90;;;;;;5053071;28;20025;-62
2022/07/14 04:07:58;;;;;;;24.50;5.25;;;16.50;99.90;;;;;;5051249;28;20025;-62
2022/07/14 04:10:24;;;;;;;19.77;4.75;;;16.60;99.90;;;;;;5047261;28;20720;-62
2022/07/14 04:12:50;;;;;;;16.33;5.00;;;16.50;99.90;;;;;;5041077;28;20024;-62
2022/07/14 04:15:16;;;;;;;21.35;4.68;;;16.40;99.90;;;;;;5043781;28;20013;-62
2022/07/14 04:17:42;;;;;;;16.60;4.70;;;16.60;99.90;;;;;;5044114;28;20021;-62
2022/07/14 04:20:08;;;;;;;16.23;4.70;;;16.50;99.90;;;;;;5049833;28;20040;-62
2022/07/14 04:22:33;;;;;;;19.95;5.20;;;16.40;99.90;;;;;;5055312;28;20028;-62
2022/07/14 04:24:59;;;;;;;22.35;5.13;;;16.40;99.90;;;;;;5033152;28;20034;-62
2022/07/14 04:27:25;;;;;;;22.55;5.18;;;16.50;99.90;;;;;;5043636;28;20032;-62
2022/07/14 04:29:51;;;;;;;24.65;5.45;;;16.50;99.90;;;;;;5043804;28;20032;-62
2022/07/14 04:32:17;;;;;;;21.42;5.22;;;16.50;99.90;;;;;;5049128;28;20037;-62
2022/07/14 04:34:44;;;;;;;27.00;5.90;;;16.50;99.90;;;;;;5049520;28;20392;-62
2022/07/14 04:37:10;;;;;;;19.17;5.00;;;16.60;99.90;;;;;;5042188;28;20387;-62
2022/07/14 04:39:35;;;;;;;17.42;5.00;;;16.50;99.90;;;;;;5044276;28;20037;-62
2022/07/14 04:42:01;;;;;;;21.17;5.57;;;16.60;99.90;;;;;;5054046;28;20075;-62
2022/07/14 04:44:27;;;;;;;20.70;5.32;;;16.40;99.90;;;;;;5040643;28;20033;-62
2022/07/14 04:46:52;;;;;;;17.33;4.90;;;16.70;99.90;;;;;;5051732;28;20060;-62
2022/07/14 04:52:03;;;;;;;20.38;4.50;;;16.60;99.90;;;;;;5043683;28;20030;-62
2022/07/14 04:54:30;;;;;;;20.83;4.80;;;16.80;99.90;;;;;;5047087;28;20025;-62
2022/07/14 04:56:55;;;;;;;20.38;4.97;;;16.70;99.90;;;;;;5041668;28;20048;-62
2022/07/14 04:59:21;;;;;;;26.92;5.43;;;16.60;99.90;;;;;;5049685;28;20021;-62
2022/07/14 05:01:47;;;;;;;27.38;4.97;;;16.50;99.90;;;;;;5046556;28;20068;-62
2022/07/14 05:04:12;;;;;;;24.60;4.80;;;16.60;99.90;;;;;;5052390;28;20029;-62
2022/07/14 05:06:38;;;;;;;18.52;4.40;;;16.70;99.90;;;;;;5051717;28;20345;-62
2022/07/14 05:09:04;;;;;;;20.35;4.82;;;16.70;99.90;;;;;;5053242;28;20024;-62
2022/07/14 05:11:30;;;;;;;23.95;4.90;;;16.70;99.90;;;;;;5049110;28;20025;-62
2022/07/14 05:13:55;;;;;;;17.88;5.03;;;16.90;99.90;;;;;;5054322;28;20033;-62
2022/07/14 05:16:21;;;;;;;20.23;4.80;;;17.00;99.90;;;;;;5050892;28;20039;-62
2022/07/14 05:18:47;;;;;;;27.95;5.65;;;16.90;99.90;;;;;;5048378;28;20434;-62
2022/07/14 05:21:13;;;;;;;22.67;5.72;;;16.80;99.90;;;;;;5038017;28;20034;-62
2022/07/14 05:23:39;;;;;;;18.35;5.18;;;16.70;99.90;;;;;;5055416;28;20830;-62
2022/07/14 05:26:12;;;;;;;21.90;5.25;;;16.70;99.90;;;;;;5052371;28;20115;-62
2022/07/14 05:28:38;;;;;;;;;;;16.70;99.90;;;;;;5057324;28;20021;-62
2022/07/14 05:31:04;;;;;;;19.10;5.50;;;16.80;99.90;;;;;;5056645;28;19916;-62
2022/07/14 05:33:30;;;;;;;21.52;5.57;;;17.00;99.90;;;;;;5058575;28;20107;-62
2022/07/14 05:35:56;;;;;;;27.08;5.63;;;17.20;99.90;;;;;;5055442;28;20395;-62
2022/07/14 05:38:23;;;;;;;21.20;5.35;;;17.10;99.90;;;;;;5036322;28;20036;-62
2022/07/14 05:40:49;;;;;;;22.13;6.38;;;17.00;99.90;;;;;;5031111;28;20035;-62
2022/07/14 05:43:14;;;;;;;29.58;6.53;;;16.90;99.90;;;;;;5044668;28;20270;-62
2022/07/14 05:45:40;;;;;;;23.77;6.55;;;17.10;99.90;;;;;;5051492;28;20025;-62
2022/07/14 05:48:06;;;;;;;29.00;5.40;;;17.00;99.90;;;;;;5045931;28;20518;-62
2022/07/14 05:50:31;;;;;;;21.75;6.00;;;17.20;99.90;;;;;;5048389;28;20361;-62
2022/07/14 05:52:57;;;;;;;21.58;5.97;;;17.20;99.90;;;;;;5040503;28;20028;-62
2022/07/14 05:55:23;;;;;;;27.08;6.68;;;17.60;99.90;;;;;;5044192;28;20024;-62
2022/07/14 05:57:51;;;;;;;17.65;7.28;;;17.60;99.90;;;;;;5036668;28;20017;-62
2022/07/14 06:00:17;;;;;;;23.65;6.63;;;17.70;99.90;;;;;;5039517;28;20064;-62
2022/07/14 06:02:43;;;;;;;27.33;6.97;;;17.60;99.90;;;;;;5041926;28;20061;-62
2022/07/14 06:05:10;;;;;;;24.73;6.13;;;17.60;99.90;;;;;;5049342;28;20559;-62
2022/07/14 06:07:36;;;;;;;20.80;6.95;;;17.60;99.90;;;;;;5056649;28;20193;-62
2022/07/14 06:10:02;;;;;;;24.60;7.28;;;17.70;99.90;;;;;;5047464;28;20037;-62
2022/07/14 06:12:28;;;;;;;22.63;7.40;;;17.80;99.90;;;;;;5046380;28;20454;-62
2022/07/14 06:14:54;;;;;;;29.15;7.53;;;17.90;99.90;;;;;;5043252;28;20021;-62
2022/07/14 06:17:19;;;;;;;30.77;7.95;;;17.60;99.90;;;;;;5037070;28;20056;-62
2022/07/14 06:19:45;;;;;;;42.08;21.38;;;17.80;99.90;;;;;;5042503;28;20013;-61
2022/07/14 06:22:11;;;;;;;22.67;6.53;;;17.70;99.90;;;;;;5036671;28;20123;-62
2022/07/14 06:24:43;;;;;;;25.73;5.90;;;17.70;99.90;;;;;;5038434;28;20044;-63
2022/07/14 06:27:09;;;;;;;30.48;6.25;;;17.80;99.90;;;;;;5026158;28;20493;-62
2022/07/14 06:29:34;;;;;;;24.38;5.60;;;17.80;99.90;;;;;;5043289;28;20029;-63
2022/07/14 06:32:00;;;;;;;21.88;4.65;;;17.70;99.90;;;;;;5040861;28;20065;-63
2022/07/14 06:34:27;;;;;;;25.00;4.65;;;17.80;99.90;;;;;;5030107;28;20022;-63
2022/07/14 06:36:52;;;;;;;26.48;4.88;;;17.80;99.90;;;;;;5045867;28;20094;-62
2022/07/14 06:39:18;;;;;;;20.13;4.45;;;17.60;99.90;;;;;;5044855;28;20045;-63
2022/07/14 06:41:43;;;;;;;15.10;3.72;;;17.80;99.90;;;;;;5053920;28;20037;-63
2022/07/14 06:44:09;;;;;;;24.90;5.40;;;17.90;99.90;;;;;;5045382;28;20111;-62
2022/07/14 06:46:37;;;;;;;22.40;4.28;;;17.90;99.90;;;;;;5045623;28;20031;-63
2022/07/14 06:49:02;;;;;;;20.52;4.20;;;18.00;99.90;;;;;;5038133;28;20091;-62
2022/07/14 06:51:28;;;;;;;19.33;4.03;;;17.90;99.90;;;;;;5049961;28;20029;-63
2022/07/14 06:53:54;;;;;;;17.75;4.10;;;18.10;99.90;;;;;;5052116;28;20054;-62
2022/07/14 06:56:20;;;;;;;16.77;4.05;;;17.90;99.90;;;;;;5043009;28;20064;-63
2022/07/14 06:58:45;;;;;;;17.75;4.32;;;17.80;99.90;;;;;;5039486;28;20020;-63
2022/07/14 07:01:11;;;;;;;17.15;3.58;;;17.80;99.90;;;;;;5046060;28;20388;-62
2022/07/14 07:03:36;;;;;;;18.67;3.70;;;17.90;99.90;;;;;;5048139;28;20148;-63
2022/07/14 07:08:46;;;;;;;13.10;3.75;;;18.10;99.90;;;;;;5047484;28;20055;-62
2022/07/14 07:11:12;;;;;;;15.63;3.33;;;18.10;99.90;;;;;;5042231;28;20484;-63
2022/07/14 07:13:38;;;;;;;14.77;3.53;;;18.50;99.90;;;;;;5036522;28;20029;-63
2022/07/14 07:16:04;;;;;;;19.48;3.72;;;18.40;99.90;;;;;;5042719;28;20036;-63
2022/07/14 07:18:31;;;;;;;17.52;3.88;;;18.30;99.90;;;;;;5040818;28;20216;-62
2022/07/14 07:20:57;;;;;;;17.02;3.58;;;18.10;99.90;;;;;;5044151;28;20028;-62
2022/07/14 07:23:22;;;;;;;18.90;3.83;;;18.10;99.90;;;;;;5039227;28;20025;-62
2022/07/14 07:25:48;;;;;;;17.55;3.22;;;18.20;99.90;;;;;;5039587;28;20380;-63
2022/07/14 07:28:14;;;;;;;15.35;3.63;;;18.30;99.90;;;;;;5044620;28;20100;-63
2022/07/14 07:30:39;;;;;;;16.90;3.47;;;18.40;99.90;;;;;;5042858;28;20032;-63
2022/07/14 07:33:05;;;;;;;17.50;2.80;;;18.30;99.90;;;;;;5039795;28;20105;-63
2022/07/14 07:35:31;;;;;;;14.63;2.72;;;18.40;99.90;;;;;;5043915;28;20048;-63
2022/07/14 07:37:56;;;;;;;15.05;2.85;;;18.40;99.90;;;;;;5045768;28;20648;-63
2022/07/14 07:40:22;;;;;;;14.38;3.13;;;18.70;99.90;;;;;;5035602;28;20035;-63
2022/07/14 07:42:47;;;;;;;12.65;2.97;;;19.00;99.90;;;;;;5035959;28;20156;-63
2022/07/14 07:45:13;;;;;;;19.52;3.22;;;18.80;99.90;;;;;;5038537;28;20024;-63
2022/07/14 07:47:39;;;;;;;10.95;2.38;;;19.00;99.90;;;;;;5037232;28;20037;-63
2022/07/14 07:50:06;;;;;;;8.32;2.30;;;19.30;99.90;;;;;;5043799;28;20032;-63
2022/07/14 07:52:32;;;;;;;14.95;3.58;;;19.30;99.90;;;;;;5040669;28;20048;-63
2022/07/14 07:54:58;;;;;;;16.20;2.97;;;19.30;99.90;;;;;;5041659;28;20595;-63
2022/07/14 07:57:23;;;;;;;14.48;3.17;;;19.30;99.90;;;;;;5035751;28;20025;-63
2022/07/14 07:59:49;;;;;;;9.18;2.80;;;19.50;99.90;;;;;;5047317;28;20029;-63
2022/07/14 08:02:16;;;;;;;12.20;2.67;;;19.60;99.90;;;;;;5035243;28;20071;-64
2022/07/14 08:04:41;;;;;;;13.43;3.08;;;19.60;99.90;;;;;;5040247;28;20523;-63
2022/07/14 08:07:07;;;;;;;11.98;2.80;;;19.70;99.90;;;;;;5046318;28;20029;-63
2022/07/14 08:09:33;;;;;;;13.15;2.60;;;19.50;99.90;;;;;;5046457;28;20029;-63
2022/07/14 08:11:58;;;;;;;16.15;2.95;;;19.60;99.90;;;;;;5042300;28;20139;-64
2022/07/14 08:17:09;;;;;;;13.45;2.60;;;19.70;99.90;;;;;;5040055;28;20090;-63
2022/07/14 08:19:35;;;;;;;10.35;2.45;;;20.10;99.90;;;;;;5033898;28;20021;-63
2022/07/14 08:22:01;;;;;;;8.90;2.10;;;20.20;99.90;;;;;;5039424;28;20412;-64
2022/07/14 08:24:28;;;;;;;10.25;2.00;;;19.90;99.90;;;;;;5038050;28;20024;-63
2022/07/14 08:26:54;;;;;;;10.77;2.50;;;20.20;99.90;;;;;;5043542;28;20033;-63
2022/07/14 08:29:19;;;;;;;11.23;2.22;;;20.20;99.90;;;;;;5039864;28;20028;-63
2022/07/14 08:31:45;;;;;;;7.50;2.13;;;19.90;99.90;;;;;;5039495;28;20111;-63
2022/07/14 08:34:11;;;;;;;9.48;1.75;;;19.80;99.90;;;;;;5040955;28;20508;-64
2022/07/14 08:36:37;;;;;;;10.13;2.03;;;20.10;99.90;;;;;;5041605;28;20622;-63
2022/07/14 08:39:05;;;;;;;7.07;2.22;;;19.80;99.90;;;;;;5043202;28;20086;-63
2022/07/14 08:41:34;;;;;;;10.93;2.20;;;20.10;99.90;;;;;;5051625;28;20392;-63
2022/07/14 08:44:00;;;;;;;9.73;2.20;;;20.10;99.90;;;;;;5054675;28;20107;-63
2022/07/14 08:46:26;;;;;;;8.55;2.13;;;20.10;99.90;;;;;;5044442;28;20109;-64
2022/07/14 08:48:53;;;;;;;10.23;2.33;;;20.30;99.90;;;;;;5039237;28;20524;-64
2022/07/14 08:51:20;;;;;;;8.82;1.85;;;20.40;99.90;;;;;;5054486;28;20439;-63
2022/07/14 08:53:46;;;;;;;7.47;1.80;;;20.40;99.90;;;;;;5053475;28;20021;-63
2022/07/14 08:56:11;;;;;;;13.38;2.63;;;20.50;99.90;;;;;;5055942;28;20557;-64
2022/07/14 08:58:39;;;;;;;12.65;2.38;;;20.30;99.90;;;;;;5041238;28;20067;-64
2022/07/14 09:01:05;;;;;;;11.27;2.63;;;20.40;99.90;;;;;;5039827;28;20488;-64
2022/07/14 09:03:31;;;;;;;8.82;2.25;;;20.60;99.90;;;;;;5049629;28;20582;-64
2022/07/14 09:05:57;;;;;;;11.73;2.25;;;20.30;99.90;;;;;;5054707;28;20071;-64
2022/07/14 09:08:22;;;;;;;7.88;2.22;;;20.50;99.90;;;;;;5046583;28;20025;-64
2022/07/14 09:10:48;;;;;;;7.65;1.90;;;20.40;99.90;;;;;;5046207;28;20174;-64
2022/07/14 09:13:17;;;;;;;6.95;1.77;;;20.60;99.90;;;;;;5053537;28;20043;-64
2022/07/14 09:15:46;;;;;;;8.65;2.00;;;20.60;99.90;;;;;;5046128;28;20272;-63
2022/07/14 09:18:22;;;;;;;11.95;2.50;;;20.70;99.90;;;;;;5045686;28;20074;-64
2022/07/14 09:20:49;;;;;;;9.18;2.20;;;20.70;99.90;;;;;;5043547;28;20032;-64
2022/07/14 09:23:14;;;;;;;11.32;2.58;;;21.10;99.90;;;;;;5050311;28;20024;-64
2022/07/14 09:25:40;;;;;;;8.10;2.38;;;20.80;99.90;;;;;;5045489;28;20485;-64
2022/07/14 09:28:07;;;;;;;12.82;2.50;;;20.80;99.90;;;;;;5054995;28;20024;-64
2022/07/14 09:30:33;;;;;;;9.35;2.10;;;21.00;99.90;;;;;;5042015;28;20127;-64
2022/07/14 09:33:00;;;;;;;7.50;1.88;;;21.30;99.90;;;;;;5038266;28;20040;-64
2022/07/14 09:35:34;;;;;;;9.07;2.33;;;21.10;99.90;;;;;;5042188;28;20032;-64
2022/07/14 09:38:13;;;;;;;7.50;2.20;;;21.10;99.90;;;;;;5043912;28;20497;-64
2022/07/14 09:40:39;;;;;;;8.10;1.65;;;21.20;99.90;;;;;;5051895;28;20735;-64
2022/07/14 09:43:08;;;;;;;9.88;2.45;;;21.30;99.90;;;;;;5050149;28;20021;-64
2022/07/14 09:45:36;;;;;;;9.10;1.88;;;21.40;99.90;;;;;;5040481;28;20036;-64
2022/07/14 09:48:12;;;;;;;5.43;1.35;;;21.40;99.90;;;;;;5043931;28;20024;-64
2022/07/14 09:50:46;;;;;;;8.57;1.90;;;21.40;99.90;;;;;;5052138;28;20507;-64
2022/07/14 09:53:19;;;;;;;10.57;1.98;;;21.40;99.90;;;;;;5050843;28;20024;-64
2022/07/14 09:56:04;;;;;;;6.70;1.70;;;21.50;99.90;;;;;;5047592;28;20078;-64
2022/07/14 09:58:41;;;;;;;10.23;1.98;;;21.60;99.90;;;;;;5045188;28;20029;-64
2022/07/14 10:01:14;;;;;;;8.43;1.80;;;21.40;99.90;;;;;;5035779;28;20476;-64
2022/07/14 10:03:42;;;;;;;5.75;1.92;;;21.50;99.90;;;;;;5048803;28;20024;-64
2022/07/14 10:06:08;;;;;;;8.32;1.73;;;21.70;99.90;;;;;;5046832;28;20044;-64
2022/07/14 10:08:35;;;;;;;7.45;1.70;;;21.70;99.90;;;;;;5044377;28;20080;-64
2022/07/14 10:11:03;;;;;;;11.35;2.05;;;21.60;99.90;;;;;;5035194;28;20036;-64
2022/07/14 10:13:30;;;;;;;7.00;1.70;;;21.70;99.90;;;;;;5040547;28;20376;-64
2022/07/14 10:15:56;;;;;;;8.35;1.88;;;21.50;99.90;;;;;;5036339;28;20027;-64
2022/07/14 10:18:23;;;;;;;6.00;1.27;;;21.60;99.90;;;;;;5048206;28;20232;-64
2022/07/14 10:20:52;;;;;;;8.23;1.50;;;21.80;99.90;;;;;;5042445;28;20601;-64
2022/07/14 10:23:19;;;;;;;10.40;1.77;;;21.90;99.90;;;;;;5052583;28;20025;-64
2022/07/14 10:25:47;;;;;;;5.30;1.58;;;21.90;99.90;;;;;;5056048;28;20023;-64
2022/07/14 10:28:16;;;;;;;8.52;1.80;;;21.80;99.90;;;;;;5048059;28;20016;-64
2022/07/14 10:30:48;;;;;;;6.80;1.50;;;21.90;99.90;;;;;;5041914;28;20032;-64
2022/07/14 10:33:46;;;;;;;4.68;1.40;;;22.30;99.90;;;;;;5041740;28;20020;-64
2022/07/14 10:36:16;;;;;;;9.25;1.58;;;22.30;99.90;;;;;;5051309;28;20056;-64
2022/07/14 10:39:22;;;;;;;7.32;1.65;;;22.10;99.90;;;;;;5041859;28;20959;-64
2022/07/14 10:42:22;;;;;;;10.73;1.90;;;22.30;99.90;;;;;;4952852;28;20046;-64
2022/07/14 10:44:49;;;;;;;5.35;1.60;;;22.30;99.90;;;;;;5044680;28;20493;-64
2022/07/14 10:47:16;;;;;;;5.57;1.70;;;22.40;99.90;;;;;;5042655;28;20017;-64
2022/07/14 10:50:24;;;;;;;7.95;1.73;;;22.40;99.90;;;;;;5042972;28;20527;-63
2022/07/14 10:52:57;;;;;;;6.20;1.63;;;22.40;99.90;;;;;;4992379;28;20734;-64
2022/07/14 10:55:29;;;;;;;;;;;22.50;99.90;;;;;;5002748;28;20489;-64
2022/07/14 10:58:00;;;;;;;9.50;1.58;;;22.40;99.90;;;;;;5019820;28;19908;-64
2022/07/14 11:00:41;;;;;;;4.63;1.50;;;22.50;99.90;;;;;;5042365;28;20547;-64
2022/07/14 11:03:26;;;;;;;6.85;1.52;;;22.40;99.90;;;;;;5040605;28;20035;-63
2022/07/14 11:06:01;;;;;;;4.22;1.42;;;22.70;99.90;;;;;;5046407;28;20042;-64
2022/07/14 11:08:27;;;;;;;6.15;1.33;;;22.80;99.90;;;;;;5051658;28;20020;-64
2022/07/14 11:10:54;;;;;;;6.38;1.65;;;22.90;99.90;;;;;;5052309;28;20616;-64
2022/07/14 11:13:20;;;;;;;7.20;1.80;;;22.90;99.90;;;;;;5054918;28;20099;-64
2022/07/14 11:15:50;;;;;;;6.68;1.42;;;22.80;99.90;;;;;;5054565;28;20021;-64
2022/07/14 11:18:20;;;;;;;5.45;1.52;;;22.70;99.90;;;;;;5037836;28;20032;-64
2022/07/14 11:21:05;;;;;;;6.10;1.48;;;23.00;99.90;;;;;;5041805;28;20037;-63
2022/07/14 11:23:36;;;;;;;7.00;1.73;;;22.80;99.90;;;;;;5042826;28;20025;-63
2022/07/14 11:26:06;;;;;;;8.70;1.70;;;22.90;99.90;;;;;;5044921;28;20071;-64
2022/07/14 11:28:39;;;;;;;9.98;1.65;;;22.90;99.90;;;;;;5042973;28;20461;-64
2022/07/14 11:31:10;;;;;;;;;;;22.80;99.90;;;;;;5052444;28;20074;-64
2022/07/14 11:36:17;;;;;;;6.63;1.30;;;22.90;99.90;;;;;;5037078;28;19923;-63
2022/07/14 11:36:23;;;;;;;5.57;1.52;;;22.90;99.90;;;;;;5046812;28;20033;-64
2022/07/14 11:38:49;;;;;;;5.35;1.30;;;22.90;99.90;;;;;;5039283;28;20058;-64
2022/07/14 11:41:14;;;;;;;4.47;1.20;;;22.80;99.90;;;;;;5052591;28;20377;-64
2022/07/14 11:43:50;;;;;;;5.40;1.40;;;22.80;99.90;;;;;;5054128;28;20036;-64
2022/07/14 11:46:18;;;;;;;4.20;1.38;;;22.90;99.90;;;;;;5053985;28;20016;-64
2022/07/14 11:48:50;;;;;;;7.28;1.60;;;23.10;99.90;;;;;;5045307;28;20372;-64
2022/07/14 11:51:27;;;;;;;11.07;6.38;;;23.00;99.90;;;;;;5050523;28;20052;-64
2022/07/14 11:53:55;;;;;;;6.10;1.30;;;23.10;99.90;;;;;;5045910;28;20361;-65
2022/07/14 11:56:25;;;;;;;4.22;1.40;;;23.30;99.90;;;;;;5043337;28;20051;-65
2022/07/14 11:58:53;;;;;;;4.95;1.40;;;23.50;99.90;;;;;;5047258;28;20033;-64
2022/07/14 12:01:18;;;;;;;3.00;1.13;;;23.50;99.90;;;;;;5044760;28;20025;-64
2022/07/14 12:03:45;;;;;;;3.70;1.50;;;23.30;99.90;;;;;;5056719;28;20033;-64
2022/07/14 12:06:11;;;;;;;5.03;1.10;;;23.60;99.90;;;;;;5045034;28;20252;-64
2022/07/14 12:08:37;;;;;;;6.30;1.52;;;23.80;99.90;;;;;;5053620;28;20496;-64
2022/07/14 12:11:08;;;;;;;7.70;1.50;;;23.90;99.90;;;;;;5048906;28;20025;-64
2022/07/14 12:13:53;;;;;;;3.70;1.20;;;23.70;99.90;;;;;;5043908;28;20044;-64
2022/07/14 12:16:20;;;;;;;4.18;1.42;;;23.60;99.90;;;;;;5037107;28;20029;-65
2022/07/14 12:18:46;;;;;;;3.55;1.20;;;23.70;99.90;;;;;;5032183;28;20033;-64
2022/07/14 12:21:12;;;;;;;3.08;1.02;;;23.90;99.90;;;;;;5052363;28;20115;-65
2022/07/14 12:23:52;;;;;;;3.95;1.30;;;23.90;99.90;;;;;;5049498;28;20026;-64
2022/07/14 12:26:20;;;;;;;6.15;1.10;;;23.90;99.90;;;;;;5045581;28;20123;-65
2022/07/14 12:28:54;;;;;;;5.40;1.40;;;24.10;99.90;;;;;;5039857;28;20127;-65
2022/07/14 12:31:21;;;;;;;4.15;1.23;;;24.10;99.90;;;;;;5048327;28;20086;-65
2022/07/14 12:33:48;;;;;;;4.63;1.27;;;23.90;99.90;;;;;;5050326;28;20052;-64
2022/07/14 12:36:18;;;;;;;4.03;1.20;;;24.00;99.90;;;;;;5045441;28;20119;-64
2022/07/14 12:38:45;;;;;;;4.38;1.30;;;24.00;99.90;;;;;;5041956;28;20033;-64
2022/07/14 12:41:14;;;;;;;5.20;1.50;;;23.90;99.90;;;;;;5042834;28;20612;-64
2022/07/14 12:43:41;;;;;;;6.22;1.52;;;23.70;99.90;;;;;;5028724;28;20036;-65
2022/07/14 12:46:22;;;;;;;3.05;1.17;;;23.70;99.90;;;;;;5039717;28;21113;-65
2022/07/14 12:48:52;;;;;;;4.38;1.40;;;23.60;99.90;;;;;;5043069;28;20013;-64
2022/07/14 12:51:21;;;;;;;4.95;1.20;;;23.70;99.90;;;;;;5035889;28;20040;-65
2022/07/14 12:54:05;;;;;;;4.35;1.45;;;23.40;99.90;;;;;;5047652;28;20016;-64